createdAt,value
2018-06-22T00:00:36.773Z,947.26
2018-06-22T00:01:44.758Z,947.25
2018-06-22T00:02:52.812Z,947.28
2018-06-22T00:04:00.886Z,947.28
2018-06-22T00:05:09.055Z,947.34
2018-06-22T00:06:17.016Z,947.33
2018-06-22T00:07:25.080Z,947.36
2018-06-22T00:08:33.139Z,947.37
2018-06-22T00:09:41.212Z,947.40
2018-06-22T00:10:49.369Z,947.37
2018-06-22T00:11:57.332Z,947.41
2018-06-22T00:13:05.392Z,947.41
2018-06-22T00:14:13.456Z,947.46
2018-06-22T00:15:21.543Z,947.45
2018-06-22T00:16:29.708Z,947.41
2018-06-22T00:17:37.697Z,947.45
2018-06-22T00:18:45.723Z,947.47
2018-06-22T00:19:53.792Z,947.47
2018-06-22T00:21:01.869Z,947.42
2018-06-22T00:22:10.207Z,947.47
2018-06-22T00:23:18.386Z,947.46
2018-06-22T00:24:26.451Z,947.47
2018-06-22T00:25:34.522Z,947.49
2018-06-22T00:26:42.784Z,947.49
2018-06-22T00:27:52.956Z,947.48
2018-06-22T00:29:01.024Z,947.45
2018-06-22T00:30:08.997Z,947.46
2018-06-22T00:31:17.056Z,947.45
2018-06-22T00:32:25.208Z,947.46
2018-06-22T00:33:33.284Z,947.50
2018-06-22T00:34:41.248Z,947.50
2018-06-22T00:35:49.524Z,947.50
2018-06-22T00:36:57.566Z,947.52
2018-06-22T00:38:05.650Z,947.55
2018-06-22T00:39:13.800Z,947.52
2018-06-22T00:40:21.763Z,947.53
2018-06-22T00:41:29.827Z,947.49
2018-06-22T00:42:37.897Z,947.52
2018-06-22T00:43:45.956Z,947.52
2018-06-22T00:44:54.141Z,947.45
2018-06-22T00:46:02.098Z,947.49
2018-06-22T00:47:10.148Z,947.49
2018-06-22T00:48:18.306Z,947.48
2018-06-22T00:49:26.255Z,947.46
2018-06-22T00:50:34.430Z,947.50
2018-06-22T00:51:42.373Z,947.46
2018-06-22T00:52:50.453Z,947.52
2018-06-22T00:53:58.527Z,947.48
2018-06-22T00:55:06.565Z,947.52
2018-06-22T00:56:14.734Z,947.54
2018-06-22T00:57:22.697Z,947.54
2018-06-22T00:58:30.765Z,947.54
2018-06-22T00:59:38.857Z,947.55
2018-06-22T01:00:46.872Z,947.56
2018-06-22T01:01:55.056Z,947.54
2018-06-22T01:03:03.019Z,947.55
2018-06-22T01:04:11.165Z,947.56
2018-06-22T01:05:19.140Z,947.52
2018-06-22T01:06:27.208Z,947.59
2018-06-22T01:07:35.353Z,947.66
2018-06-22T01:08:43.333Z,947.68
2018-06-22T01:09:51.402Z,947.69
2018-06-22T01:10:59.451Z,947.73
2018-06-22T01:12:07.524Z,947.70
2018-06-22T01:13:15.690Z,947.72
2018-06-22T01:14:23.656Z,947.71
2018-06-22T01:15:31.707Z,947.71
2018-06-22T01:16:39.784Z,947.73
2018-06-22T01:17:47.838Z,947.71
2018-06-22T01:18:55.991Z,947.72
2018-06-22T01:20:04.067Z,947.72
2018-06-22T01:21:12.041Z,947.68
2018-06-22T01:22:20.164Z,947.73
2018-06-22T01:23:28.163Z,947.74
2018-06-22T01:24:36.342Z,947.75
2018-06-22T01:25:44.310Z,947.75
2018-06-22T01:26:52.361Z,947.79
2018-06-22T01:28:00.405Z,947.78
2018-06-22T01:29:08.486Z,947.82
2018-06-22T01:30:16.619Z,947.78
2018-06-22T01:31:24.606Z,947.76
2018-06-22T01:32:32.689Z,947.75
2018-06-22T01:33:40.779Z,947.77
2018-06-22T01:34:48.808Z,947.75
2018-06-22T01:35:57.082Z,947.77
2018-06-22T01:37:04.904Z,947.79
2018-06-22T01:38:12.995Z,947.78
2018-06-22T01:39:21.047Z,947.80
2018-06-22T01:40:29.116Z,947.81
2018-06-22T01:41:37.268Z,947.82
2018-06-22T01:42:45.242Z,947.84
2018-06-22T01:43:53.301Z,947.82
2018-06-22T01:45:01.357Z,947.85
2018-06-22T01:46:09.440Z,947.86
2018-06-22T01:47:17.588Z,947.85
2018-06-22T01:48:25.573Z,947.89
2018-06-22T01:49:33.620Z,947.86
2018-06-22T01:50:41.679Z,947.88
2018-06-22T01:51:49.850Z,947.90
2018-06-22T01:52:58.028Z,947.90
2018-06-22T01:54:05.865Z,947.91
2018-06-22T01:55:13.921Z,947.91
2018-06-22T01:56:22.013Z,947.90
2018-06-22T01:57:30.053Z,947.90
2018-06-22T01:58:38.211Z,947.90
2018-06-22T01:59:46.157Z,947.90
2018-06-22T02:00:54.260Z,947.88
2018-06-22T02:02:02.312Z,947.90
2018-06-22T02:03:10.367Z,947.94
2018-06-22T02:04:18.541Z,947.94
2018-06-22T02:05:26.501Z,947.95
2018-06-22T02:06:34.551Z,947.93
2018-06-22T02:07:42.719Z,947.97
2018-06-22T02:08:50.696Z,947.95
2018-06-22T02:09:58.834Z,947.92
2018-06-22T02:11:06.778Z,947.93
2018-06-22T02:12:14.861Z,947.92
2018-06-22T02:13:22.937Z,947.95
2018-06-22T02:14:30.996Z,947.96
2018-06-22T02:15:39.157Z,947.99
2018-06-22T02:16:47.118Z,947.96
2018-06-22T02:17:55.195Z,947.93
2018-06-22T02:19:03.244Z,947.95
2018-06-22T02:20:11.298Z,947.92
2018-06-22T02:21:19.473Z,947.93
2018-06-22T02:22:27.436Z,947.92
2018-06-22T02:23:35.575Z,947.90
2018-06-22T02:24:43.560Z,947.91
2018-06-22T02:25:51.622Z,947.88
2018-06-22T02:26:59.770Z,947.90
2018-06-22T02:28:07.734Z,947.89
2018-06-22T02:29:15.814Z,947.89
2018-06-22T02:30:23.856Z,947.86
2018-06-22T02:31:31.937Z,947.86
2018-06-22T02:32:40.088Z,947.85
2018-06-22T02:33:48.066Z,947.86
2018-06-22T02:34:56.092Z,947.84
2018-06-22T02:36:04.170Z,947.82
2018-06-22T02:37:12.237Z,947.80
2018-06-22T02:38:20.405Z,947.82
2018-06-22T02:39:28.452Z,947.83
2018-06-22T02:40:36.406Z,947.80
2018-06-22T02:41:44.468Z,947.79
2018-06-22T02:42:52.535Z,947.81
2018-06-22T02:44:00.715Z,947.86
2018-06-22T02:45:08.668Z,947.88
2018-06-22T02:46:16.727Z,947.89
2018-06-22T02:47:24.792Z,947.94
2018-06-22T02:48:32.857Z,947.92
2018-06-22T02:49:41.017Z,947.91
2018-06-22T02:50:48.988Z,947.87
2018-06-22T02:51:57.035Z,947.89
2018-06-22T02:53:05.108Z,947.87
2018-06-22T02:54:13.164Z,947.90
2018-06-22T02:55:21.324Z,947.89
2018-06-22T02:56:29.309Z,947.87
2018-06-22T02:57:37.347Z,947.84
2018-06-22T02:58:45.427Z,947.86
2018-06-22T02:59:53.529Z,947.83
2018-06-22T03:01:01.633Z,947.84
2018-06-22T03:02:09.600Z,947.88
2018-06-22T03:03:17.669Z,947.84
2018-06-22T03:04:25.739Z,947.91
2018-06-22T03:05:33.774Z,947.91
2018-06-22T03:06:41.945Z,947.88
2018-06-22T03:07:49.949Z,947.89
2018-06-22T03:08:57.974Z,947.91
2018-06-22T03:10:06.031Z,947.87
2018-06-22T03:11:14.230Z,947.81
2018-06-22T03:13:39.417Z,947.77
2018-06-22T03:14:47.385Z,947.77
2018-06-22T03:15:55.444Z,947.79
2018-06-22T03:17:03.503Z,947.84
2018-06-22T03:18:11.573Z,947.85
2018-06-22T03:19:19.715Z,947.86
2018-06-22T03:20:27.697Z,947.86
2018-06-22T03:21:35.729Z,947.88
2018-06-22T03:22:43.815Z,947.86
2018-06-22T03:23:51.909Z,947.88
2018-06-22T03:25:00.028Z,947.92
2018-06-22T03:26:07.981Z,947.90
2018-06-22T03:27:16.044Z,947.94
2018-06-22T03:28:24.125Z,947.91
2018-06-22T03:29:32.196Z,947.86
2018-06-22T03:30:40.351Z,947.88
2018-06-22T03:31:48.307Z,947.85
2018-06-22T03:32:56.356Z,947.84
2018-06-22T03:34:04.440Z,947.83
2018-06-22T03:35:12.484Z,947.83
2018-06-22T03:36:20.636Z,947.87
2018-06-22T03:37:28.624Z,947.85
2018-06-22T03:38:36.667Z,947.87
2018-06-22T03:39:44.729Z,947.90
2018-06-22T03:40:52.800Z,947.89
2018-06-22T03:42:00.959Z,947.86
2018-06-22T03:43:08.915Z,947.87
2018-06-22T03:44:16.970Z,947.89
2018-06-22T03:45:25.039Z,947.87
2018-06-22T03:46:33.112Z,947.85
2018-06-22T03:47:41.264Z,947.87
2018-06-22T03:48:49.234Z,947.87
2018-06-22T03:49:57.287Z,947.90
2018-06-22T03:51:05.390Z,947.89
2018-06-22T03:52:13.425Z,947.86
2018-06-22T03:53:21.576Z,947.92
2018-06-22T03:54:29.531Z,947.94
2018-06-22T03:55:37.616Z,947.92
2018-06-22T03:56:45.682Z,947.91
2018-06-22T03:57:53.836Z,947.97
2018-06-22T03:59:01.866Z,947.94
2018-06-22T04:00:09.854Z,947.96
2018-06-22T04:01:17.918Z,947.96
2018-06-22T04:02:25.972Z,947.95
2018-06-22T04:03:34.036Z,947.95
2018-06-22T04:04:42.194Z,947.95
2018-06-22T04:05:50.155Z,947.92
2018-06-22T04:06:58.239Z,947.92
2018-06-22T04:08:06.340Z,947.94
2018-06-22T04:09:14.344Z,947.90
2018-06-22T04:10:22.508Z,947.92
2018-06-22T04:11:30.473Z,947.90
2018-06-22T04:12:38.539Z,947.89
2018-06-22T04:13:46.669Z,947.89
2018-06-22T04:14:54.665Z,947.86
2018-06-22T04:16:02.820Z,947.87
2018-06-22T04:17:10.786Z,947.88
2018-06-22T04:18:18.852Z,947.88
2018-06-22T04:19:26.887Z,947.88
2018-06-22T04:20:34.969Z,947.91
2018-06-22T04:21:43.135Z,947.91
2018-06-22T04:22:51.096Z,947.89
2018-06-22T04:23:59.158Z,947.90
2018-06-22T04:25:07.223Z,947.93
2018-06-22T04:26:15.289Z,947.95
2018-06-22T04:27:23.440Z,947.98
2018-06-22T04:28:31.405Z,947.96
2018-06-22T04:29:39.694Z,948.00
2018-06-22T04:30:47.539Z,947.96
2018-06-22T04:31:55.600Z,948.00
2018-06-22T04:33:03.767Z,947.97
2018-06-22T04:34:11.713Z,947.96
2018-06-22T04:35:19.929Z,947.97
2018-06-22T04:36:27.847Z,947.91
2018-06-22T04:37:35.913Z,947.90
2018-06-22T04:38:44.469Z,947.91
2018-06-22T04:39:52.036Z,947.88
2018-06-22T04:41:00.097Z,947.90
2018-06-22T04:42:08.145Z,947.89
2018-06-22T04:43:16.191Z,947.90
2018-06-22T04:44:24.645Z,947.88
2018-06-22T04:45:32.827Z,947.91
2018-06-22T04:46:40.406Z,947.93
2018-06-22T04:47:48.807Z,947.95
2018-06-22T04:48:56.510Z,947.95
2018-06-22T04:50:04.686Z,947.97
2018-06-22T04:51:12.756Z,948.02
2018-06-22T04:52:20.721Z,948.03
2018-06-22T04:53:29.026Z,948.04
2018-06-22T04:54:36.823Z,948.06
2018-06-22T04:55:45.820Z,948.08
2018-06-22T04:56:52.973Z,948.12
2018-06-22T04:58:01.029Z,948.10
2018-06-22T04:59:09.083Z,948.10
2018-06-22T05:00:17.155Z,948.09
2018-06-22T05:01:27.309Z,948.11
2018-06-22T05:02:33.856Z,948.12
2018-06-22T05:03:42.555Z,948.14
2018-06-22T05:07:08.980Z,948.15
2018-06-22T05:08:13.669Z,948.19
2018-06-22T05:10:29.801Z,948.22
2018-06-22T05:11:37.790Z,948.21
2018-06-22T05:12:45.911Z,948.21
2018-06-22T05:13:53.914Z,948.20
2018-06-22T05:15:01.982Z,948.25
2018-06-22T05:16:10.017Z,948.21
2018-06-22T05:17:18.236Z,948.16
2018-06-22T05:18:26.290Z,948.21
2018-06-22T05:19:34.241Z,948.19
2018-06-22T05:20:42.416Z,948.19
2018-06-22T05:21:50.439Z,948.17
2018-06-22T05:22:58.500Z,948.19
2018-06-22T05:24:06.674Z,948.22
2018-06-22T05:25:14.657Z,948.23
2018-06-22T05:26:22.630Z,948.25
2018-06-22T05:27:30.668Z,948.24
2018-06-22T05:28:38.712Z,948.26
2018-06-22T05:29:46.873Z,948.26
2018-06-22T05:30:54.849Z,948.25
2018-06-22T05:32:02.918Z,948.26
2018-06-22T05:33:11.080Z,948.22
2018-06-22T05:34:19.042Z,948.17
2018-06-22T05:35:27.209Z,948.19
2018-06-22T05:36:35.240Z,948.19
2018-06-22T05:37:43.232Z,948.18
2018-06-22T05:38:51.300Z,948.18
2018-06-22T05:39:59.365Z,948.13
2018-06-22T05:41:07.536Z,948.16
2018-06-22T05:42:15.485Z,948.14
2018-06-22T05:43:23.542Z,948.12
2018-06-22T05:44:31.611Z,948.19
2018-06-22T05:45:39.681Z,948.18
2018-06-22T05:46:47.790Z,948.21
2018-06-22T05:47:55.830Z,948.22
2018-06-22T05:49:03.992Z,948.22
2018-06-22T05:50:11.914Z,948.22
2018-06-22T05:51:19.996Z,948.27
2018-06-22T05:52:28.104Z,948.22
2018-06-22T05:53:36.118Z,948.23
2018-06-22T05:54:44.189Z,948.19
2018-06-22T05:55:52.246Z,948.23
2018-06-22T05:57:00.311Z,948.26
2018-06-22T05:58:08.439Z,948.27
2018-06-22T05:59:16.448Z,948.26
2018-06-22T06:00:24.492Z,948.31
2018-06-22T06:01:32.570Z,948.32
2018-06-22T06:02:40.676Z,948.34
2018-06-22T06:03:48.698Z,948.39
2018-06-22T06:04:56.868Z,948.37
2018-06-22T06:06:04.829Z,948.40
2018-06-22T06:07:12.880Z,948.40
2018-06-22T06:08:21.069Z,948.40
2018-06-22T06:09:29.025Z,948.39
2018-06-22T06:10:37.062Z,948.43
2018-06-22T06:11:45.153Z,948.45
2018-06-22T06:12:53.203Z,948.41
2018-06-22T06:14:01.523Z,948.46
2018-06-22T06:15:09.344Z,948.43
2018-06-22T06:16:17.367Z,948.44
2018-06-22T06:17:25.462Z,948.44
2018-06-22T06:18:33.558Z,948.45
2018-06-22T06:19:41.716Z,948.44
2018-06-22T06:20:49.769Z,948.45
2018-06-22T06:21:57.714Z,948.44
2018-06-22T06:23:05.785Z,948.40
2018-06-22T06:24:13.850Z,948.38
2018-06-22T06:25:21.958Z,948.39
2018-06-22T06:26:29.968Z,948.37
2018-06-22T06:27:38.048Z,948.42
2018-06-22T06:28:46.108Z,948.42
2018-06-22T06:29:54.165Z,948.46
2018-06-22T06:31:02.341Z,948.45
2018-06-22T06:32:10.292Z,948.49
2018-06-22T06:33:18.367Z,948.42
2018-06-22T06:34:26.505Z,948.39
2018-06-22T06:35:34.488Z,948.41
2018-06-22T06:36:42.677Z,948.45
2018-06-22T06:37:50.619Z,948.43
2018-06-22T06:38:58.692Z,948.44
2018-06-22T06:40:06.761Z,948.47
2018-06-22T06:41:14.813Z,948.51
2018-06-22T06:42:23.007Z,948.50
2018-06-22T06:43:30.944Z,948.48
2018-06-22T06:44:39.010Z,948.47
2018-06-22T06:45:47.043Z,948.47
2018-06-22T06:46:55.150Z,948.48
2018-06-22T06:48:03.274Z,948.43
2018-06-22T06:49:11.263Z,948.40
2018-06-22T06:50:19.329Z,948.44
2018-06-22T06:51:27.385Z,948.45
2018-06-22T06:52:35.577Z,948.45
2018-06-22T06:53:43.532Z,948.49
2018-06-22T06:54:51.607Z,948.52
2018-06-22T06:55:59.663Z,948.53
2018-06-22T06:57:07.752Z,948.46
2018-06-22T06:58:15.915Z,948.48
2018-06-22T06:59:23.853Z,948.64
2018-06-22T07:00:31.926Z,948.67
2018-06-22T07:01:39.996Z,948.58
2018-06-22T07:02:48.037Z,948.76
2018-06-22T07:03:56.269Z,948.84
2018-06-22T07:05:04.180Z,948.92
2018-06-22T07:06:12.248Z,949.09
2018-06-22T07:07:20.325Z,948.93
2018-06-22T07:08:28.422Z,948.82
2018-06-22T07:09:36.566Z,948.94
2018-06-22T07:10:44.512Z,949.38
2018-06-22T07:11:52.583Z,949.32
2018-06-22T07:13:00.644Z,949.23
2018-06-22T07:14:08.712Z,949.43
2018-06-22T07:15:16.882Z,949.34
2018-06-22T07:16:24.968Z,949.48
2018-06-22T07:17:32.917Z,949.68
2018-06-22T07:18:40.993Z,949.70
2018-06-22T07:19:49.059Z,949.76
2018-06-22T07:20:57.227Z,949.54
2018-06-22T07:22:05.202Z,949.62
2018-06-22T07:23:13.329Z,949.91
2018-06-22T07:24:21.344Z,949.62
2018-06-22T07:25:29.425Z,949.95
2018-06-22T07:26:37.597Z,949.73
2018-06-22T07:27:45.559Z,949.94
2018-06-22T07:28:53.641Z,949.96
2018-06-22T07:30:01.704Z,949.96
2018-06-22T07:31:09.792Z,949.91
2018-06-22T07:32:17.963Z,949.90
2018-06-22T07:33:25.928Z,949.95
2018-06-22T07:34:34.012Z,949.99
2018-06-22T07:35:42.083Z,950.11
2018-06-22T07:36:50.154Z,950.20
2018-06-22T07:37:58.352Z,950.34
2018-06-22T07:39:06.325Z,950.28
2018-06-22T07:40:14.393Z,950.22
2018-06-22T07:41:22.481Z,950.17
2018-06-22T07:42:30.568Z,950.25
2018-06-22T07:43:38.659Z,950.36
2018-06-22T07:44:46.685Z,950.38
2018-06-22T07:45:54.784Z,950.45
2018-06-22T07:47:02.853Z,950.54
2018-06-22T07:48:10.921Z,950.59
2018-06-22T07:49:19.124Z,950.64
2018-06-22T07:50:27.061Z,950.70
2018-06-22T07:51:35.174Z,950.78
2018-06-22T07:52:43.249Z,950.91
2018-06-22T07:53:51.447Z,951.03
2018-06-22T07:54:59.605Z,951.05
2018-06-22T07:56:07.485Z,951.17
2018-06-22T07:57:15.629Z,951.48
2018-06-22T07:58:23.666Z,951.76
2018-06-22T07:59:31.730Z,951.91
2018-06-22T08:00:39.871Z,952.02
2018-06-22T08:01:47.891Z,952.23
2018-06-22T08:02:55.992Z,952.41
2018-06-22T08:04:04.049Z,952.61
2018-06-22T08:05:12.144Z,952.84
2018-06-22T08:06:20.363Z,953.06
2018-06-22T08:07:28.302Z,953.39
2018-06-22T08:08:36.380Z,953.58
2018-06-22T08:09:44.506Z,953.71
2018-06-22T08:10:52.533Z,953.89
2018-06-22T08:12:00.729Z,954.08
2018-06-22T08:13:08.714Z,954.26
2018-06-22T08:14:16.776Z,954.30
2018-06-22T08:15:24.874Z,954.22
2018-06-22T08:16:32.960Z,954.30
2018-06-22T08:17:41.260Z,954.53
2018-06-22T08:18:49.118Z,954.67
2018-06-22T08:19:57.184Z,954.71
2018-06-22T08:21:05.279Z,954.71
2018-06-22T08:22:13.364Z,954.88
2018-06-22T08:23:21.567Z,955.10
2018-06-22T08:24:29.669Z,955.18
2018-06-22T08:25:37.696Z,955.11
2018-06-22T08:26:45.686Z,954.89
2018-06-22T08:27:53.769Z,954.80
2018-06-22T08:29:01.917Z,954.50
2018-06-22T08:30:09.928Z,954.51
2018-06-22T08:31:18.035Z,954.52
2018-06-22T08:32:26.102Z,954.59
2018-06-22T08:33:34.192Z,954.73
2018-06-22T08:34:42.397Z,954.96
2018-06-22T08:35:50.338Z,955.14
2018-06-22T08:36:58.439Z,954.82
2018-06-22T08:38:06.519Z,954.50
2018-06-22T08:39:14.596Z,954.16
2018-06-22T08:40:22.806Z,953.92
2018-06-22T08:41:30.902Z,954.16
2018-06-22T08:42:38.843Z,954.32
2018-06-22T08:43:46.935Z,954.05
2018-06-22T08:44:55.010Z,953.64
2018-06-22T08:46:03.213Z,953.56
2018-06-22T08:47:11.185Z,953.61
2018-06-22T08:48:19.267Z,953.70
2018-06-22T08:49:27.315Z,953.73
2018-06-22T08:50:35.424Z,953.80
2018-06-22T08:51:43.614Z,953.83
2018-06-22T08:52:51.595Z,953.92
2018-06-22T08:53:59.686Z,953.76
2018-06-22T08:55:07.752Z,953.64
2018-06-22T08:56:15.846Z,953.72
2018-06-22T08:57:24.066Z,953.78
2018-06-22T08:58:32.015Z,953.69
2018-06-22T08:59:40.123Z,953.55
2018-06-22T09:00:48.187Z,953.17
2018-06-22T09:01:56.255Z,952.85
2018-06-22T09:03:04.447Z,952.66
2018-06-22T09:04:12.425Z,952.56
2018-06-22T09:05:20.492Z,952.73
2018-06-22T09:06:28.576Z,952.66
2018-06-22T09:07:36.672Z,952.51
2018-06-22T09:08:44.860Z,952.46
2018-06-22T09:09:52.822Z,952.41
2018-06-22T09:11:00.911Z,952.34
2018-06-22T09:12:09.003Z,952.14
2018-06-22T09:13:17.182Z,952.23
2018-06-22T09:14:25.340Z,952.32
2018-06-22T09:15:33.254Z,952.25
2018-06-22T09:16:41.335Z,952.30
2018-06-22T09:17:49.425Z,952.36
2018-06-22T09:18:57.479Z,952.41
2018-06-22T09:20:05.718Z,952.48
2018-06-22T09:21:13.662Z,952.63
2018-06-22T09:22:21.739Z,952.51
2018-06-22T09:23:29.814Z,952.92
2018-06-22T09:24:37.919Z,949.49
2018-06-22T09:25:46.114Z,951.02
2018-06-22T09:26:54.244Z,953.25
2018-06-22T09:28:02.189Z,953.27
2018-06-22T09:29:10.299Z,952.19
2018-06-22T09:30:18.331Z,950.06
2018-06-22T09:31:26.576Z,949.42
2018-06-22T09:32:34.479Z,949.34
2018-06-22T09:33:42.558Z,949.37
2018-06-22T09:34:50.641Z,949.44
2018-06-22T09:35:58.715Z,949.37
2018-06-22T09:37:06.831Z,949.37
2018-06-22T09:38:14.890Z,949.29
2018-06-22T09:39:22.955Z,949.23
2018-06-22T09:40:31.034Z,949.23
2018-06-22T09:41:39.116Z,949.25
2018-06-22T09:42:47.336Z,949.17
2018-06-22T09:43:55.278Z,949.19
2018-06-22T09:45:03.428Z,949.18
2018-06-22T09:46:11.457Z,949.25
2018-06-22T09:47:19.489Z,949.28
2018-06-22T09:48:27.705Z,949.22
2018-06-22T09:49:35.654Z,949.19
2018-06-22T09:50:43.719Z,949.15
2018-06-22T09:51:51.801Z,949.11
2018-06-22T09:52:59.888Z,949.07
2018-06-22T09:54:08.002Z,949.10
2018-06-22T09:55:16.108Z,949.05
2018-06-22T09:56:24.104Z,949.03
2018-06-22T09:57:32.169Z,949.06
2018-06-22T09:58:40.251Z,949.01
2018-06-22T09:59:48.361Z,949.05
2018-06-22T10:00:56.494Z,949.03
2018-06-22T10:02:04.528Z,948.99
2018-06-22T10:03:12.526Z,949.01
2018-06-22T10:04:20.604Z,948.97
2018-06-22T10:05:28.732Z,948.91
2018-06-22T10:06:36.750Z,948.90
2018-06-22T10:07:44.820Z,948.88
2018-06-22T10:08:52.896Z,948.90
2018-06-22T10:10:00.978Z,948.89
2018-06-22T10:11:09.141Z,948.93
2018-06-22T10:12:17.082Z,948.93
2018-06-22T10:13:25.187Z,948.91
2018-06-22T10:14:33.257Z,948.95
2018-06-22T10:15:41.329Z,948.95
2018-06-22T10:16:49.517Z,948.98
2018-06-22T10:17:57.439Z,948.96
2018-06-22T10:19:05.533Z,948.96
2018-06-22T10:20:13.616Z,948.95
2018-06-22T10:21:21.690Z,948.94
2018-06-22T10:22:29.875Z,948.93
2018-06-22T10:23:37.827Z,948.99
2018-06-22T10:24:45.895Z,948.99
2018-06-22T10:25:53.963Z,948.98
2018-06-22T10:27:02.088Z,948.95
2018-06-22T10:28:10.361Z,948.95
2018-06-22T10:29:18.174Z,949.00
2018-06-22T10:30:26.257Z,948.97
2018-06-22T10:31:34.328Z,949.00
2018-06-22T10:32:42.430Z,948.98
2018-06-22T10:33:50.633Z,949.02
2018-06-22T10:34:58.544Z,949.00
2018-06-22T10:36:06.603Z,948.98
2018-06-22T10:37:14.682Z,948.98
2018-06-22T10:38:22.760Z,948.92
2018-06-22T10:39:30.935Z,948.95
2018-06-22T10:40:38.904Z,948.92
2018-06-22T10:41:46.942Z,948.93
2018-06-22T10:42:55.042Z,948.89
2018-06-22T10:44:03.112Z,948.91
2018-06-22T10:45:11.236Z,948.85
2018-06-22T10:46:19.246Z,948.82
2018-06-22T10:47:27.298Z,948.87
2018-06-22T10:48:35.496Z,948.85
2018-06-22T10:49:43.465Z,948.86
2018-06-22T10:50:51.577Z,948.84
2018-06-22T10:51:59.617Z,948.80
2018-06-22T10:53:07.656Z,948.82
2018-06-22T10:54:15.735Z,948.75
2018-06-22T10:55:23.808Z,948.83
2018-06-22T10:56:31.932Z,948.82
2018-06-22T10:57:39.964Z,948.84
2018-06-22T10:58:48.035Z,948.88
2018-06-22T10:59:56.177Z,948.80
2018-06-22T11:01:04.166Z,948.82
2018-06-22T11:02:12.288Z,948.79
2018-06-22T11:03:20.309Z,948.82
2018-06-22T11:04:28.463Z,948.81
2018-06-22T11:05:36.460Z,948.83
2018-06-22T11:06:44.525Z,948.76
2018-06-22T11:07:52.595Z,948.78
2018-06-22T11:09:00.670Z,948.84
2018-06-22T11:10:08.744Z,948.87
2018-06-22T11:11:16.796Z,948.86
2018-06-22T11:12:24.992Z,948.84
2018-06-22T11:13:32.977Z,948.78
2018-06-22T11:14:41.019Z,948.79
2018-06-22T11:15:49.098Z,948.71
2018-06-22T11:16:57.161Z,948.84
2018-06-22T11:18:05.280Z,948.80
2018-06-22T11:19:13.301Z,948.86
2018-06-22T11:20:21.486Z,948.85
2018-06-22T11:21:29.435Z,948.83
2018-06-22T11:22:37.506Z,948.80
2018-06-22T11:23:45.696Z,948.80
2018-06-22T11:24:53.658Z,948.86
2018-06-22T11:26:01.716Z,948.82
2018-06-22T11:27:09.815Z,948.89
2018-06-22T11:28:17.877Z,948.84
2018-06-22T11:29:26.066Z,948.81
2018-06-22T11:30:34.172Z,948.81
2018-06-22T11:31:42.095Z,948.91
2018-06-22T11:32:50.167Z,948.90
2018-06-22T11:33:58.297Z,948.89
2018-06-22T11:35:06.405Z,948.90
2018-06-22T11:36:14.424Z,948.84
2018-06-22T11:37:22.444Z,948.72
2018-06-22T11:38:30.500Z,948.81
2018-06-22T11:39:38.616Z,948.73
2018-06-22T11:40:46.751Z,948.80
2018-06-22T11:41:54.725Z,948.79
2018-06-22T11:43:02.786Z,948.86
2018-06-22T11:44:10.863Z,948.84
2018-06-22T11:45:18.920Z,948.79
2018-06-22T11:46:27.097Z,948.76
2018-06-22T11:47:35.085Z,948.75
2018-06-22T11:48:43.130Z,948.75
2018-06-22T11:49:51.214Z,948.71
2018-06-22T11:50:59.286Z,948.67
2018-06-22T11:52:07.442Z,948.71
2018-06-22T11:53:15.432Z,948.58
2018-06-22T11:54:23.501Z,948.72
2018-06-22T11:55:31.571Z,948.66
2018-06-22T11:56:39.648Z,948.67
2018-06-22T11:57:47.815Z,948.61
2018-06-22T11:58:55.780Z,948.62
2018-06-22T12:00:03.853Z,948.65
2018-06-22T12:01:11.931Z,948.68
2018-06-22T12:02:19.993Z,948.59
2018-06-22T12:03:28.574Z,948.63
2018-06-22T12:04:36.188Z,948.62
2018-06-22T12:05:44.202Z,948.58
2018-06-22T12:06:52.286Z,948.59
2018-06-22T12:08:00.404Z,948.57
2018-06-22T12:09:08.554Z,948.53
2018-06-22T12:10:16.492Z,948.53
2018-06-22T12:11:24.608Z,948.49
2018-06-22T12:12:32.619Z,948.49
2018-06-22T12:13:40.708Z,948.54
2018-06-22T12:14:48.893Z,948.48
2018-06-22T12:15:56.860Z,948.50
2018-06-22T12:17:04.917Z,948.46
2018-06-22T12:18:12.975Z,948.45
2018-06-22T12:19:21.217Z,948.49
2018-06-22T12:20:29.248Z,948.48
2018-06-22T12:21:37.179Z,948.48
2018-06-22T12:22:45.271Z,948.44
2018-06-22T12:23:53.451Z,948.40
2018-06-22T12:25:01.416Z,948.40
2018-06-22T12:26:09.600Z,948.38
2018-06-22T12:27:17.522Z,948.38
2018-06-22T12:28:25.626Z,948.39
2018-06-22T12:29:33.696Z,948.37
2018-06-22T12:30:41.771Z,948.39
2018-06-22T12:31:49.944Z,948.42
2018-06-22T12:32:57.905Z,948.43
2018-06-22T12:34:05.989Z,948.42
2018-06-22T12:35:14.045Z,948.39
2018-06-22T12:36:22.142Z,948.42
2018-06-22T12:37:30.305Z,948.33
2018-06-22T12:38:38.255Z,948.33
2018-06-22T12:39:46.369Z,948.38
2018-06-22T12:40:54.531Z,948.48
2018-06-22T12:42:02.459Z,948.46
2018-06-22T12:43:10.659Z,948.47
2018-06-22T12:44:18.605Z,948.41
2018-06-22T12:45:26.680Z,948.44
2018-06-22T12:46:34.754Z,948.40
2018-06-22T12:47:42.832Z,948.36
2018-06-22T12:48:51.059Z,948.27
2018-06-22T12:49:58.976Z,948.32
2018-06-22T12:51:07.031Z,948.31
2018-06-22T12:52:15.110Z,948.30
2018-06-22T12:53:23.185Z,948.42
2018-06-22T12:54:31.290Z,948.41
2018-06-22T12:55:39.442Z,948.44
2018-06-22T12:56:47.361Z,948.44
2018-06-22T12:57:55.471Z,948.44
2018-06-22T12:59:03.534Z,948.45
2018-06-22T13:00:11.724Z,948.46
2018-06-22T13:01:19.685Z,948.42
2018-06-22T13:02:27.745Z,948.31
2018-06-22T13:03:35.824Z,948.37
2018-06-22T13:04:43.907Z,948.45
2018-06-22T13:05:52.082Z,948.46
2018-06-22T13:07:00.048Z,948.50
2018-06-22T13:08:08.131Z,948.49
2018-06-22T13:09:16.185Z,948.53
2018-06-22T13:10:24.256Z,948.51
2018-06-22T13:11:32.448Z,948.54
2018-06-22T13:12:40.384Z,948.55
2018-06-22T13:13:48.455Z,948.62
2018-06-22T13:14:56.546Z,948.58
2018-06-22T13:16:04.606Z,948.45
2018-06-22T13:17:12.792Z,948.46
2018-06-22T13:18:20.758Z,948.48
2018-06-22T13:19:28.817Z,948.54
2018-06-22T13:20:36.880Z,948.52
2018-06-22T13:21:44.976Z,948.57
2018-06-22T13:22:53.151Z,948.66
2018-06-22T13:24:01.110Z,948.66
2018-06-22T13:25:09.190Z,948.69
2018-06-22T13:26:17.231Z,948.73
2018-06-22T13:27:25.388Z,948.70
2018-06-22T13:28:33.515Z,948.68
2018-06-22T13:29:41.485Z,948.63
2018-06-22T13:30:49.572Z,948.62
2018-06-22T13:31:57.601Z,948.60
2018-06-22T13:33:05.761Z,948.61
2018-06-22T13:34:13.877Z,948.66
2018-06-22T13:35:21.831Z,948.63
2018-06-22T13:36:29.906Z,948.64
2018-06-22T13:37:37.970Z,948.62
2018-06-22T13:38:46.035Z,948.69
2018-06-22T13:39:54.170Z,948.67
2018-06-22T13:41:02.182Z,948.69
2018-06-22T13:42:10.242Z,948.69
2018-06-22T13:43:18.521Z,948.76
2018-06-22T13:44:26.479Z,948.72
2018-06-22T13:45:34.589Z,948.70
2018-06-22T13:46:42.555Z,948.69
2018-06-22T13:47:50.618Z,948.68
2018-06-22T13:48:58.694Z,948.78
2018-06-22T13:50:06.807Z,948.84
2018-06-22T13:51:14.944Z,948.82
2018-06-22T13:52:22.907Z,948.86
2018-06-22T13:53:30.965Z,948.80
2018-06-22T13:54:39.033Z,948.75
2018-06-22T13:55:47.094Z,948.84
2018-06-22T13:56:55.366Z,948.86
2018-06-22T13:58:03.262Z,948.86
2018-06-22T13:59:11.398Z,948.84
2018-06-22T14:00:19.405Z,948.87
2018-06-22T14:01:27.470Z,948.85
2018-06-22T14:02:35.668Z,948.85
2018-06-22T14:03:43.637Z,948.88
2018-06-22T14:04:51.690Z,948.89
2018-06-22T14:05:59.757Z,948.96
2018-06-22T14:07:07.818Z,948.84
2018-06-22T14:08:15.945Z,948.92
2018-06-22T14:09:24.065Z,948.90
2018-06-22T14:10:32.052Z,948.92
2018-06-22T14:11:40.122Z,948.88
2018-06-22T14:12:48.194Z,948.93
2018-06-22T14:13:56.322Z,948.94